createdAt,value
2018-09-26T00:01:00.287Z,44.70
2018-09-26T00:06:03.905Z,44.90
2018-09-26T00:11:07.631Z,45.00
2018-09-26T00:16:11.371Z,44.90
2018-09-26T00:21:15.300Z,44.80
2018-09-26T00:26:18.909Z,44.50
2018-09-26T00:31:25.004Z,44.80
2018-09-26T00:36:28.727Z,44.90
2018-09-26T00:41:32.323Z,45.10
2018-09-26T00:46:35.900Z,45.30
2018-09-26T00:51:39.498Z,45.70
2018-09-26T00:56:43.944Z,46.00
2018-09-26T01:01:47.772Z,46.40
2018-09-26T01:06:51.791Z,46.60
2018-09-26T01:11:55.492Z,46.50
2018-09-26T01:17:00.151Z,46.10
2018-09-26T01:22:03.992Z,47.30
2018-09-26T01:27:07.777Z,47.80
2018-09-26T01:32:11.374Z,47.90
2018-09-26T01:37:15.086Z,47.90
2018-09-26T01:42:19.208Z,47.80
2018-09-26T01:47:23.264Z,48.50
2018-09-26T01:52:26.859Z,48.90
2018-09-26T01:57:30.605Z,48.90
2018-09-26T02:02:34.619Z,49.30
2018-09-26T02:07:38.486Z,49.60
2018-09-26T02:12:42.315Z,50.10
2018-09-26T02:17:45.840Z,50.10
2018-09-26T02:22:49.459Z,49.90
2018-09-26T02:27:53.031Z,50.30
2018-09-26T02:32:57.023Z,50.90
2018-09-26T02:38:00.617Z,51.30
2018-09-26T02:43:04.286Z,51.30
2018-09-26T02:48:07.895Z,51.60
2018-09-26T02:53:13.580Z,51.50
2018-09-26T02:58:18.568Z,51.80
2018-09-26T03:03:22.119Z,52.10
2018-09-26T03:08:25.705Z,52.10
2018-09-26T03:13:29.315Z,52.30
2018-09-26T03:18:32.882Z,52.50
2018-09-26T03:23:36.710Z,52.00
2018-09-26T03:28:40.783Z,52.50
2018-09-26T03:33:44.487Z,53.40
2018-09-26T03:38:48.004Z,52.60
2018-09-26T03:43:52.482Z,52.70
2018-09-26T03:48:56.067Z,53.10
2018-09-26T03:54:00.113Z,53.30
2018-09-26T03:59:03.697Z,53.90
2018-09-26T04:04:07.300Z,54.10
2018-09-26T04:09:13.038Z,53.90
2018-09-26T04:14:17.600Z,53.30
2018-09-26T04:19:21.195Z,53.90
2018-09-26T04:24:24.819Z,54.10
2018-09-26T04:29:28.368Z,54.30
2018-09-26T04:34:39.559Z,54.20
2018-09-26T04:39:43.126Z,54.50
2018-09-26T04:44:46.727Z,54.60
2018-09-26T04:49:50.816Z,54.40
2018-09-26T04:55:08.791Z,54.70
2018-09-26T05:00:12.884Z,54.80
2018-09-26T05:05:16.467Z,54.80
2018-09-26T05:10:21.052Z,54.80
2018-09-26T05:15:24.628Z,57.70
2018-09-26T05:20:28.841Z,56.10
2018-09-26T05:25:32.637Z,54.60
2018-09-26T05:30:36.204Z,55.10
2018-09-26T05:35:39.794Z,54.80
2018-09-26T05:40:43.394Z,55.40
2018-09-26T05:45:46.991Z,55.80
2018-09-26T05:50:54.094Z,56.20
2018-09-26T05:55:57.674Z,56.70
2018-09-26T06:01:01.497Z,55.90
2018-09-26T06:06:05.126Z,56.30
2018-09-26T06:11:08.709Z,56.30
2018-09-26T06:16:12.315Z,56.80
2018-09-26T06:21:15.899Z,56.40
2018-09-26T06:26:19.464Z,56.70
2018-09-26T06:31:23.052Z,56.40
2018-09-26T06:36:26.767Z,56.20
2018-09-26T06:41:32.631Z,55.10
2018-09-26T06:46:36.235Z,54.80
2018-09-26T06:51:39.786Z,56.70
2018-09-26T06:56:43.410Z,56.80
2018-09-26T07:01:46.975Z,56.90
2018-09-26T07:06:51.368Z,57.20
2018-09-26T07:11:55.031Z,57.00
2018-09-26T07:16:59.851Z,56.70
2018-09-26T07:22:03.930Z,56.50
2018-09-26T07:27:07.521Z,56.50
2018-09-26T07:32:11.124Z,56.20
2018-09-26T07:37:15.112Z,57.90
2018-09-26T07:42:20.620Z,58.30
2018-09-26T07:47:24.192Z,57.60
2018-09-26T07:52:27.784Z,57.00
2018-09-26T07:57:32.407Z,56.40
2018-09-26T08:02:36.540Z,55.90
2018-09-26T08:07:40.951Z,54.80
2018-09-26T08:12:44.560Z,53.20
2018-09-26T08:17:56.251Z,52.80
2018-09-26T08:23:00.096Z,51.00
2018-09-26T08:28:03.727Z,51.40
2018-09-26T08:33:07.335Z,51.50
2018-09-26T08:38:13.995Z,50.20
2018-09-26T08:43:17.785Z,49.40
2018-09-26T08:48:21.527Z,47.90
2018-09-26T08:53:25.113Z,43.80
2018-09-26T08:58:28.746Z,37.40
2018-09-26T09:03:33.069Z,31.20
2018-09-26T09:08:37.648Z,29.40
2018-09-26T09:13:41.256Z,30.00
2018-09-26T09:18:44.834Z,27.40
2018-09-26T09:23:51.276Z,28.50
2018-09-26T09:28:55.190Z,29.60
2018-09-26T09:33:58.845Z,29.20
2018-09-26T09:39:02.438Z,30.00
2018-09-26T09:44:09.259Z,30.10
2018-09-26T09:49:12.860Z,32.90
2018-09-26T09:54:16.674Z,34.20
2018-09-26T09:59:20.267Z,35.70
2018-09-26T10:04:23.854Z,34.70
2018-09-26T10:09:37.661Z,37.10
2018-09-26T10:14:41.287Z,39.30
2018-09-26T10:19:46.283Z,39.80
2018-09-26T10:24:51.444Z,41.40
2018-09-26T10:29:55.069Z,42.20
2018-09-26T10:34:58.698Z,43.00
2018-09-26T10:40:03.336Z,43.60
2018-09-26T10:45:07.428Z,42.60
2018-09-26T10:50:11.714Z,41.50
2018-09-26T10:55:15.271Z,40.30
2018-09-26T11:00:18.885Z,40.60
2018-09-26T11:05:22.828Z,39.60
2018-09-26T11:10:26.544Z,39.40
2018-09-26T11:15:30.773Z,40.30
2018-09-26T11:20:34.396Z,41.30
2018-09-26T11:25:38.012Z,41.40
2018-09-26T11:30:41.565Z,40.50
2018-09-26T11:35:46.408Z,39.80
2018-09-26T11:40:50.331Z,40.70
2018-09-26T11:45:53.940Z,41.60
2018-09-26T11:56:01.160Z,38.40
2018-09-26T12:01:04.773Z,39.20
2018-09-26T12:06:08.431Z,37.80
2018-09-26T12:11:12.404Z,37.10
2018-09-26T12:16:16.097Z,35.70
2018-09-26T12:21:30.353Z,36.10
2018-09-26T12:26:24.592Z,36.50
2018-09-26T12:31:28.249Z,36.60
2018-09-26T12:36:32.316Z,36.40
2018-09-26T12:41:36.005Z,37.00
2018-09-26T12:46:39.615Z,38.20
2018-09-26T12:51:43.455Z,38.40
2018-09-26T13:01:50.254Z,40.80
2018-09-26T13:06:55.195Z,40.80
2018-09-26T13:11:58.774Z,41.30
2018-09-26T13:17:03.106Z,40.60
2018-09-26T13:22:06.787Z,41.40
2018-09-26T13:27:10.875Z,41.10
2018-09-26T13:32:14.478Z,39.20
2018-09-26T13:37:18.089Z,39.10
2018-09-26T13:42:22.369Z,39.10
2018-09-26T13:47:28.311Z,39.10
2018-09-26T13:52:32.600Z,37.70
2018-09-26T13:57:36.490Z,37.00
2018-09-26T14:02:40.597Z,38.00
2018-09-26T14:07:44.211Z,36.00
2018-09-26T14:12:47.827Z,36.40
2018-09-26T14:17:51.398Z,35.60
2018-09-26T14:22:55.238Z,35.70
2018-09-26T14:27:59.211Z,35.10
2018-09-26T14:33:03.111Z,35.80
2018-09-26T14:38:06.947Z,34.60
2018-09-26T14:43:21.661Z,32.20
2018-09-26T14:48:25.962Z,33.00
2018-09-26T14:53:36.337Z,33.80
2018-09-26T14:58:41.141Z,32.10
2018-09-26T15:03:45.140Z,32.10
2018-09-26T15:08:51.738Z,33.40
2018-09-26T15:13:59.306Z,33.80
2018-09-26T15:19:07.979Z,35.00
2018-09-26T15:24:12.059Z,37.10
2018-09-26T15:29:17.491Z,37.20
2018-09-26T15:34:21.841Z,37.90
2018-09-26T15:39:25.532Z,37.20
2018-09-26T15:44:29.332Z,38.60
2018-09-26T15:49:33.145Z,38.10
2018-09-26T15:54:36.921Z,38.70
2018-09-26T15:59:40.831Z,38.80
2018-09-26T16:04:44.428Z,39.30
2018-09-26T16:09:48.761Z,40.40
2018-09-26T16:14:52.943Z,40.00
2018-09-26T16:19:56.731Z,39.60
2018-09-26T16:25:00.783Z,39.80
2018-09-26T16:30:08.420Z,39.70
2018-09-26T16:35:12.004Z,39.70
2018-09-26T16:40:15.777Z,39.80
2018-09-26T16:45:19.432Z,40.10
2018-09-26T16:50:23.067Z,40.50
2018-09-26T16:55:26.664Z,41.10
2018-09-26T17:00:30.241Z,42.20
2018-09-26T17:05:35.376Z,42.80
2018-09-26T17:10:39.227Z,43.60
2018-09-26T17:15:43.615Z,45.00
2018-09-26T17:20:47.216Z,45.70
2018-09-26T17:25:50.803Z,46.40
2018-09-26T17:30:54.716Z,47.00
2018-09-26T17:35:58.280Z,47.60
2018-09-26T17:41:01.898Z,48.20
2018-09-26T17:46:05.495Z,48.80
2018-09-26T17:51:09.084Z,49.20
2018-09-26T17:56:13.034Z,49.80
2018-09-26T18:01:16.706Z,50.30
2018-09-26T18:06:20.457Z,50.70
2018-09-26T18:11:24.058Z,51.20
2018-09-26T18:16:28.084Z,51.50
2018-09-26T18:21:32.257Z,51.80
2018-09-26T18:31:43.947Z,51.80
2018-09-26T18:36:47.523Z,52.30
2018-09-26T18:46:55.080Z,53.00
2018-09-26T18:51:58.615Z,54.00
2018-09-26T18:57:02.223Z,54.20
2018-09-26T19:02:05.804Z,54.80
2018-09-26T19:07:09.902Z,55.10
2018-09-26T19:12:13.595Z,55.10
2018-09-26T19:17:17.118Z,55.50
2018-09-26T19:22:21.112Z,55.90
2018-09-26T19:27:24.760Z,55.90
2018-09-26T19:32:28.637Z,56.20
2018-09-26T19:37:32.288Z,56.40
2018-09-26T19:42:35.888Z,56.70
2018-09-26T19:47:39.460Z,57.10
2018-09-26T19:52:43.058Z,57.20
2018-09-26T19:57:46.820Z,57.30
2018-09-26T20:02:50.391Z,57.70
2018-09-26T20:07:53.983Z,57.80
2018-09-26T20:13:20.363Z,57.80
2018-09-26T20:18:23.947Z,57.70
2018-09-26T20:23:27.977Z,57.70
2018-09-26T20:28:31.470Z,57.70
2018-09-26T20:38:38.387Z,57.30
2018-09-26T20:43:42.226Z,58.40
2018-09-26T20:48:46.107Z,58.60
2018-09-26T20:53:49.910Z,59.00
2018-09-26T20:58:53.518Z,59.20
2018-09-26T21:03:57.092Z,59.10
2018-09-26T21:09:01.808Z,59.20
2018-09-26T21:19:08.771Z,58.50
2018-09-26T21:24:12.744Z,58.60
2018-09-26T21:29:16.339Z,58.80
2018-09-26T21:34:19.920Z,59.50
2018-09-26T21:39:23.522Z,59.10
2018-09-26T21:44:27.537Z,59.00
2018-09-26T21:49:31.095Z,59.30
2018-09-26T21:54:35.025Z,60.00
2018-09-26T21:59:38.574Z,60.30
2018-09-26T22:04:42.368Z,60.40
2018-09-26T22:09:45.917Z,59.80
2018-09-26T22:14:49.582Z,61.10
2018-09-26T22:19:54.007Z,60.40
2018-09-26T22:24:57.888Z,60.30
2018-09-26T22:30:01.496Z,60.70
2018-09-26T22:35:07.034Z,61.80
2018-09-26T22:40:10.603Z,60.90
2018-09-26T22:45:14.523Z,60.50
2018-09-26T22:50:18.076Z,60.60
2018-09-26T22:55:21.738Z,60.80
2018-09-26T23:00:25.575Z,60.50
2018-09-26T23:05:29.418Z,61.70
2018-09-26T23:10:33.108Z,61.80
2018-09-26T23:15:36.712Z,60.40
2018-09-26T23:20:40.283Z,61.40
2018-09-26T23:25:44.091Z,62.10
2018-09-26T23:30:47.708Z,60.70
2018-09-26T23:35:57.373Z,61.30
2018-09-26T23:41:00.963Z,60.50
2018-09-26T23:46:06.515Z,61.60
2018-09-26T23:51:10.088Z,61.80
2018-09-26T23:56:13.934Z,61.30
